sensor_id;sensor_type;location;lat;lon;timestamp;P1;durP1;ratioP1;P2;durP2;ratioP2
10463;SDS011;5279;42.048;24.638;2023-04-09T00:01:01;14.17;;;10.93;;
10463;SDS011;5279;42.048;24.638;2023-04-09T00:03:28;16.00;;;11.23;;
10463;SDS011;5279;42.048;24.638;2023-04-09T00:05:55;14.80;;;11.27;;
10463;SDS011;5279;42.048;24.638;2023-04-09T00:08:22;14.93;;;10.47;;
10463;SDS011;5279;42.048;24.638;2023-04-09T00:10:49;11.57;;;9.20;;
10463;SDS011;5279;42.048;24.638;2023-04-09T00:13:16;11.70;;;8.87;;
10463;SDS011;5279;42.048;24.638;2023-04-09T00:15:45;11.73;;;8.70;;
10463;SDS011;5279;42.048;24.638;2023-04-09T00:18:12;13.03;;;9.10;;
10463;SDS011;5279;42.048;24.638;2023-04-09T00:20:39;13.53;;;9.07;;
10463;SDS011;5279;42.048;24.638;2023-04-09T00:23:06;12.07;;;9.20;;
10463;SDS011;5279;42.048;24.638;2023-04-09T00:25:33;13.90;;;10.20;;
10463;SDS011;5279;42.048;24.638;2023-04-09T00:28:00;11.80;;;9.10;;
10463;SDS011;5279;42.048;24.638;2023-04-09T00:30:27;11.60;;;8.97;;
10463;SDS011;5279;42.048;24.638;2023-04-09T00:32:55;12.87;;;9.87;;
10463;SDS011;5279;42.048;24.638;2023-04-09T00:35:23;14.83;;;9.70;;
10463;SDS011;5279;42.048;24.638;2023-04-09T00:37:50;12.33;;;9.13;;
10463;SDS011;5279;42.048;24.638;2023-04-09T00:40:16;13.07;;;9.73;;
10463;SDS011;5279;42.048;24.638;2023-04-09T00:42:43;13.57;;;10.20;;
10463;SDS011;5279;42.048;24.638;2023-04-09T00:45:11;12.60;;;9.37;;
10463;SDS011;5279;42.048;24.638;2023-04-09T00:47:37;13.17;;;9.63;;
10463;SDS011;5279;42.048;24.638;2023-04-09T00:50:06;12.10;;;9.23;;
10463;SDS011;5279;42.048;24.638;2023-04-09T00:52:34;14.10;;;9.50;;
10463;SDS011;5279;42.048;24.638;2023-04-09T00:55:02;12.87;;;9.80;;
10463;SDS011;5279;42.048;24.638;2023-04-09T00:57:30;11.30;;;8.90;;
10463;SDS011;5279;42.048;24.638;2023-04-09T00:59:57;11.33;;;8.77;;
10463;SDS011;5279;42.048;24.638;2023-04-09T01:02:24;12.47;;;9.23;;
10463;SDS011;5279;42.048;24.638;2023-04-09T01:04:51;11.47;;;8.90;;
10463;SDS011;5279;42.048;24.638;2023-04-09T01:07:22;13.63;;;9.53;;
10463;SDS011;5279;42.048;24.638;2023-04-09T01:09:58;15.17;;;9.53;;
10463;SDS011;5279;42.048;24.638;2023-04-09T01:12:44;11.83;;;8.60;;
10463;SDS011;5279;42.048;24.638;2023-04-09T01:15:18;12.10;;;9.10;;
10463;SDS011;5279;42.048;24.638;2023-04-09T01:17:52;15.40;;;10.03;;
10463;SDS011;5279;42.048;24.638;2023-04-09T01:20:28;12.80;;;9.07;;
10463;SDS011;5279;42.048;24.638;2023-04-09T01:23:03;13.30;;;9.50;;
10463;SDS011;5279;42.048;24.638;2023-04-09T01:25:41;12.90;;;9.93;;
10463;SDS011;5279;42.048;24.638;2023-04-09T01:28:18;13.67;;;10.13;;
10463;SDS011;5279;42.048;24.638;2023-04-09T01:30:48;13.93;;;10.27;;
10463;SDS011;5279;42.048;24.638;2023-04-09T01:33:18;16.53;;;11.13;;
10463;SDS011;5279;42.048;24.638;2023-04-09T01:35:46;14.03;;;10.67;;
10463;SDS011;5279;42.048;24.638;2023-04-09T01:38:15;14.77;;;10.40;;
10463;SDS011;5279;42.048;24.638;2023-04-09T01:40:44;13.63;;;10.33;;
10463;SDS011;5279;42.048;24.638;2023-04-09T01:43:11;15.20;;;10.67;;
10463;SDS011;5279;42.048;24.638;2023-04-09T01:45:40;15.37;;;10.90;;
10463;SDS011;5279;42.048;24.638;2023-04-09T01:48:09;17.83;;;11.87;;
10463;SDS011;5279;42.048;24.638;2023-04-09T01:50:36;15.27;;;11.03;;
10463;SDS011;5279;42.048;24.638;2023-04-09T01:53:04;14.83;;;10.97;;
10463;SDS011;5279;42.048;24.638;2023-04-09T01:55:31;15.70;;;10.57;;
10463;SDS011;5279;42.048;24.638;2023-04-09T01:57:58;15.90;;;10.57;;
10463;SDS011;5279;42.048;24.638;2023-04-09T02:00:26;19.10;;;11.67;;
10463;SDS011;5279;42.048;24.638;2023-04-09T02:03:01;16.77;;;12.00;;
10463;SDS011;5279;42.048;24.638;2023-04-09T02:05:34;15.93;;;10.57;;
10463;SDS011;5279;42.048;24.638;2023-04-09T02:08:05;15.13;;;10.43;;
10463;SDS011;5279;42.048;24.638;2023-04-09T02:10:34;16.37;;;11.00;;
10463;SDS011;5279;42.048;24.638;2023-04-09T02:13:03;16.87;;;11.47;;
10463;SDS011;5279;42.048;24.638;2023-04-09T02:15:31;15.87;;;11.37;;
10463;SDS011;5279;42.048;24.638;2023-04-09T02:18:03;15.10;;;10.47;;
10463;SDS011;5279;42.048;24.638;2023-04-09T02:20:30;15.47;;;11.10;;
10463;SDS011;5279;42.048;24.638;2023-04-09T02:22:57;15.13;;;10.77;;
10463;SDS011;5279;42.048;24.638;2023-04-09T02:25:23;14.40;;;9.90;;
10463;SDS011;5279;42.048;24.638;2023-04-09T02:27:51;12.40;;;9.27;;
10463;SDS011;5279;42.048;24.638;2023-04-09T02:30:18;14.20;;;10.37;;
10463;SDS011;5279;42.048;24.638;2023-04-09T02:32:45;14.37;;;10.03;;
10463;SDS011;5279;42.048;24.638;2023-04-09T02:35:14;16.30;;;9.67;;
10463;SDS011;5279;42.048;24.638;2023-04-09T02:37:40;19.13;;;10.97;;
10463;SDS011;5279;42.048;24.638;2023-04-09T02:40:08;15.97;;;11.37;;
10463;SDS011;5279;42.048;24.638;2023-04-09T02:42:35;18.43;;;12.53;;
10463;SDS011;5279;42.048;24.638;2023-04-09T02:45:02;23.10;;;12.90;;
10463;SDS011;5279;42.048;24.638;2023-04-09T02:47:29;19.13;;;12.80;;
10463;SDS011;5279;42.048;24.638;2023-04-09T02:49:56;20.63;;;13.50;;
10463;SDS011;5279;42.048;24.638;2023-04-09T02:52:24;18.27;;;12.00;;
10463;SDS011;5279;42.048;24.638;2023-04-09T02:54:51;12.27;;;9.27;;
10463;SDS011;5279;42.048;24.638;2023-04-09T02:57:19;12.57;;;9.60;;
10463;SDS011;5279;42.048;24.638;2023-04-09T02:59:45;14.47;;;10.03;;
10463;SDS011;5279;42.048;24.638;2023-04-09T03:02:12;15.77;;;10.47;;
10463;SDS011;5279;42.048;24.638;2023-04-09T03:04:39;15.13;;;10.10;;
10463;SDS011;5279;42.048;24.638;2023-04-09T03:07:06;21.43;;;12.70;;
10463;SDS011;5279;42.048;24.638;2023-04-09T03:09:34;19.87;;;12.83;;
10463;SDS011;5279;42.048;24.638;2023-04-09T03:12:01;20.77;;;14.17;;
10463;SDS011;5279;42.048;24.638;2023-04-09T03:14:28;22.13;;;13.50;;
10463;SDS011;5279;42.048;24.638;2023-04-09T03:16:55;21.50;;;13.73;;
10463;SDS011;5279;42.048;24.638;2023-04-09T03:19:22;21.97;;;13.47;;
10463;SDS011;5279;42.048;24.638;2023-04-09T03:21:49;21.37;;;13.67;;
10463;SDS011;5279;42.048;24.638;2023-04-09T03:24:16;21.90;;;13.90;;
10463;SDS011;5279;42.048;24.638;2023-04-09T03:26:44;21.93;;;13.23;;
10463;SDS011;5279;42.048;24.638;2023-04-09T03:29:11;20.80;;;14.37;;
10463;SDS011;5279;42.048;24.638;2023-04-09T03:31:37;23.70;;;14.83;;
10463;SDS011;5279;42.048;24.638;2023-04-09T03:34:04;25.30;;;13.37;;
10463;SDS011;5279;42.048;24.638;2023-04-09T03:36:31;27.07;;;15.07;;
10463;SDS011;5279;42.048;24.638;2023-04-09T03:38:58;22.80;;;13.90;;
10463;SDS011;5279;42.048;24.638;2023-04-09T03:41:25;24.37;;;13.60;;
10463;SDS011;5279;42.048;24.638;2023-04-09T03:43:54;21.93;;;13.67;;
10463;SDS011;5279;42.048;24.638;2023-04-09T03:46:21;28.23;;;14.57;;
10463;SDS011;5279;42.048;24.638;2023-04-09T03:48:49;23.30;;;13.90;;
10463;SDS011;5279;42.048;24.638;2023-04-09T03:51:16;20.03;;;12.57;;
10463;SDS011;5279;42.048;24.638;2023-04-09T03:53:43;23.37;;;14.60;;
10463;SDS011;5279;42.048;24.638;2023-04-09T03:56:10;25.33;;;13.87;;
10463;SDS011;5279;42.048;24.638;2023-04-09T03:58:37;24.80;;;14.87;;
10463;SDS011;5279;42.048;24.638;2023-04-09T04:01:05;23.83;;;14.93;;
10463;SDS011;5279;42.048;24.638;2023-04-09T04:03:32;25.67;;;15.20;;
10463;SDS011;5279;42.048;24.638;2023-04-09T04:05:59;23.57;;;13.57;;
10463;SDS011;5279;42.048;24.638;2023-04-09T04:08:27;24.90;;;14.73;;
10463;SDS011;5279;42.048;24.638;2023-04-09T04:10:54;23.97;;;14.13;;
10463;SDS011;5279;42.048;24.638;2023-04-09T04:13:21;22.23;;;14.83;;
10463;SDS011;5279;42.048;24.638;2023-04-09T04:15:48;20.87;;;14.07;;
10463;SDS011;5279;42.048;24.638;2023-04-09T04:18:16;23.57;;;13.30;;
10463;SDS011;5279;42.048;24.638;2023-04-09T04:20:43;21.50;;;13.63;;
10463;SDS011;5279;42.048;24.638;2023-04-09T04:23:10;27.67;;;15.00;;
10463;SDS011;5279;42.048;24.638;2023-04-09T04:25:39;26.80;;;14.17;;
10463;SDS011;5279;42.048;24.638;2023-04-09T04:28:07;20.47;;;13.07;;
10463;SDS011;5279;42.048;24.638;2023-04-09T04:30:34;22.93;;;13.77;;
10463;SDS011;5279;42.048;24.638;2023-04-09T04:33:01;23.23;;;13.70;;
10463;SDS011;5279;42.048;24.638;2023-04-09T04:35:29;22.77;;;13.90;;
10463;SDS011;5279;42.048;24.638;2023-04-09T04:37:56;20.40;;;13.30;;
10463;SDS011;5279;42.048;24.638;2023-04-09T04:40:22;23.33;;;13.40;;
10463;SDS011;5279;42.048;24.638;2023-04-09T04:42:49;19.00;;;12.70;;
10463;SDS011;5279;42.048;24.638;2023-04-09T04:45:16;21.17;;;13.17;;
10463;SDS011;5279;42.048;24.638;2023-04-09T04:47:43;20.00;;;12.33;;
10463;SDS011;5279;42.048;24.638;2023-04-09T04:50:10;23.97;;;13.63;;
10463;SDS011;5279;42.048;24.638;2023-04-09T04:52:38;20.83;;;13.00;;
10463;SDS011;5279;42.048;24.638;2023-04-09T04:55:05;20.33;;;12.33;;
10463;SDS011;5279;42.048;24.638;2023-04-09T04:57:32;18.83;;;12.00;;
10463;SDS011;5279;42.048;24.638;2023-04-09T04:59:59;19.37;;;12.50;;
10463;SDS011;5279;42.048;24.638;2023-04-09T05:02:26;18.30;;;11.40;;
10463;SDS011;5279;42.048;24.638;2023-04-09T05:04:53;18.13;;;11.87;;
10463;SDS011;5279;42.048;24.638;2023-04-09T05:07:20;18.97;;;12.07;;
10463;SDS011;5279;42.048;24.638;2023-04-09T05:09:48;21.17;;;12.47;;
10463;SDS011;5279;42.048;24.638;2023-04-09T05:12:15;21.50;;;12.73;;
10463;SDS011;5279;42.048;24.638;2023-04-09T05:14:42;21.77;;;13.20;;
10463;SDS011;5279;42.048;24.638;2023-04-09T05:17:09;22.50;;;13.47;;
10463;SDS011;5279;42.048;24.638;2023-04-09T05:19:36;22.30;;;13.53;;
10463;SDS011;5279;42.048;24.638;2023-04-09T05:22:03;21.97;;;13.27;;
10463;SDS011;5279;42.048;24.638;2023-04-09T05:24:29;21.50;;;13.13;;
10463;SDS011;5279;42.048;24.638;2023-04-09T05:26:58;24.87;;;13.27;;
10463;SDS011;5279;42.048;24.638;2023-04-09T05:29:25;21.67;;;14.07;;
10463;SDS011;5279;42.048;24.638;2023-04-09T05:31:52;24.50;;;14.07;;
10463;SDS011;5279;42.048;24.638;2023-04-09T05:34:19;27.70;;;14.13;;
10463;SDS011;5279;42.048;24.638;2023-04-09T05:36:45;27.60;;;15.27;;
10463;SDS011;5279;42.048;24.638;2023-04-09T05:39:12;29.37;;;16.10;;
10463;SDS011;5279;42.048;24.638;2023-04-09T05:41:39;25.03;;;14.67;;
10463;SDS011;5279;42.048;24.638;2023-04-09T05:44:09;26.57;;;15.17;;
10463;SDS011;5279;42.048;24.638;2023-04-09T05:46:36;26.97;;;15.20;;
10463;SDS011;5279;42.048;24.638;2023-04-09T05:49:04;25.60;;;14.30;;
10463;SDS011;5279;42.048;24.638;2023-04-09T05:51:31;25.63;;;15.00;;
10463;SDS011;5279;42.048;24.638;2023-04-09T05:53:58;27.07;;;15.60;;
10463;SDS011;5279;42.048;24.638;2023-04-09T05:56:25;26.17;;;14.77;;
10463;SDS011;5279;42.048;24.638;2023-04-09T05:58:52;27.70;;;16.13;;
10463;SDS011;5279;42.048;24.638;2023-04-09T06:01:20;25.00;;;15.00;;
10463;SDS011;5279;42.048;24.638;2023-04-09T06:03:47;26.33;;;15.00;;
10463;SDS011;5279;42.048;24.638;2023-04-09T06:06:14;31.57;;;16.90;;
10463;SDS011;5279;42.048;24.638;2023-04-09T06:08:41;28.30;;;15.07;;
10463;SDS011;5279;42.048;24.638;2023-04-09T06:11:09;27.03;;;15.03;;
10463;SDS011;5279;42.048;24.638;2023-04-09T06:13:36;30.00;;;15.23;;
10463;SDS011;5279;42.048;24.638;2023-04-09T06:16:03;27.93;;;14.63;;
10463;SDS011;5279;42.048;24.638;2023-04-09T06:18:32;26.80;;;15.57;;
10463;SDS011;5279;42.048;24.638;2023-04-09T06:21:02;24.40;;;14.40;;
10463;SDS011;5279;42.048;24.638;2023-04-09T06:23:30;28.87;;;15.07;;
10463;SDS011;5279;42.048;24.638;2023-04-09T06:25:57;26.93;;;15.03;;
10463;SDS011;5279;42.048;24.638;2023-04-09T06:28:25;25.37;;;15.60;;
10463;SDS011;5279;42.048;24.638;2023-04-09T06:30:53;25.30;;;14.30;;
10463;SDS011;5279;42.048;24.638;2023-04-09T06:33:20;25.97;;;15.77;;
10463;SDS011;5279;42.048;24.638;2023-04-09T06:35:48;27.90;;;15.77;;
10463;SDS011;5279;42.048;24.638;2023-04-09T06:38:15;29.37;;;16.13;;
10463;SDS011;5279;42.048;24.638;2023-04-09T06:40:42;25.93;;;16.20;;
10463;SDS011;5279;42.048;24.638;2023-04-09T06:43:09;33.47;;;18.50;;
10463;SDS011;5279;42.048;24.638;2023-04-09T06:45:36;33.00;;;16.93;;
10463;SDS011;5279;42.048;24.638;2023-04-09T06:48:03;33.63;;;16.93;;
10463;SDS011;5279;42.048;24.638;2023-04-09T06:50:31;30.73;;;16.73;;
10463;SDS011;5279;42.048;24.638;2023-04-09T06:52:59;31.53;;;15.80;;
10463;SDS011;5279;42.048;24.638;2023-04-09T06:55:26;31.03;;;16.77;;
10463;SDS011;5279;42.048;24.638;2023-04-09T06:57:53;29.70;;;16.27;;
10463;SDS011;5279;42.048;24.638;2023-04-09T07:00:20;32.97;;;15.93;;
10463;SDS011;5279;42.048;24.638;2023-04-09T07:02:47;31.93;;;16.00;;
10463;SDS011;5279;42.048;24.638;2023-04-09T07:05:14;29.93;;;16.40;;
10463;SDS011;5279;42.048;24.638;2023-04-09T07:07:41;30.43;;;16.10;;
10463;SDS011;5279;42.048;24.638;2023-04-09T07:10:09;30.60;;;16.23;;
10463;SDS011;5279;42.048;24.638;2023-04-09T07:12:36;26.87;;;15.07;;
10463;SDS011;5279;42.048;24.638;2023-04-09T07:15:03;28.97;;;16.13;;
10463;SDS011;5279;42.048;24.638;2023-04-09T07:17:32;30.60;;;15.83;;
10463;SDS011;5279;42.048;24.638;2023-04-09T07:19:59;29.97;;;15.77;;
10463;SDS011;5279;42.048;24.638;2023-04-09T07:22:27;33.07;;;15.97;;
10463;SDS011;5279;42.048;24.638;2023-04-09T07:24:55;28.17;;;16.43;;
10463;SDS011;5279;42.048;24.638;2023-04-09T07:27:24;37.70;;;17.27;;
10463;SDS011;5279;42.048;24.638;2023-04-09T07:29:53;30.13;;;16.10;;
10463;SDS011;5279;42.048;24.638;2023-04-09T07:32:20;29.90;;;15.83;;
10463;SDS011;5279;42.048;24.638;2023-04-09T07:34:47;28.73;;;15.57;;
10463;SDS011;5279;42.048;24.638;2023-04-09T07:37:16;33.40;;;17.00;;
10463;SDS011;5279;42.048;24.638;2023-04-09T07:39:43;29.23;;;15.43;;
10463;SDS011;5279;42.048;24.638;2023-04-09T07:42:11;31.13;;;16.87;;
10463;SDS011;5279;42.048;24.638;2023-04-09T07:44:39;34.17;;;17.10;;
10463;SDS011;5279;42.048;24.638;2023-04-09T07:47:06;34.77;;;17.23;;
10463;SDS011;5279;42.048;24.638;2023-04-09T07:49:34;32.37;;;15.63;;
10463;SDS011;5279;42.048;24.638;2023-04-09T07:52:02;32.63;;;16.57;;
10463;SDS011;5279;42.048;24.638;2023-04-09T07:54:29;31.10;;;16.00;;
10463;SDS011;5279;42.048;24.638;2023-04-09T07:56:56;34.57;;;16.87;;
10463;SDS011;5279;42.048;24.638;2023-04-09T07:59:24;38.27;;;16.90;;
10463;SDS011;5279;42.048;24.638;2023-04-09T08:01:53;29.90;;;16.00;;
10463;SDS011;5279;42.048;24.638;2023-04-09T08:04:19;33.17;;;15.90;;
10463;SDS011;5279;42.048;24.638;2023-04-09T08:06:46;33.73;;;16.47;;
10463;SDS011;5279;42.048;24.638;2023-04-09T08:09:15;30.97;;;16.90;;
10463;SDS011;5279;42.048;24.638;2023-04-09T08:11:42;30.83;;;16.27;;
10463;SDS011;5279;42.048;24.638;2023-04-09T08:14:11;28.47;;;15.23;;
10463;SDS011;5279;42.048;24.638;2023-04-09T08:16:38;34.97;;;16.70;;
10463;SDS011;5279;42.048;24.638;2023-04-09T08:19:07;33.80;;;16.30;;
10463;SDS011;5279;42.048;24.638;2023-04-09T08:21:35;27.43;;;15.43;;
10463;SDS011;5279;42.048;24.638;2023-04-09T08:24:03;33.63;;;17.37;;
10463;SDS011;5279;42.048;24.638;2023-04-09T08:26:32;32.27;;;15.77;;
10463;SDS011;5279;42.048;24.638;2023-04-09T08:28:59;28.57;;;15.83;;
10463;SDS011;5279;42.048;24.638;2023-04-09T08:31:26;33.43;;;15.97;;
10463;SDS011;5279;42.048;24.638;2023-04-09T08:33:53;32.20;;;16.83;;
10463;SDS011;5279;42.048;24.638;2023-04-09T08:36:21;35.13;;;18.10;;
10463;SDS011;5279;42.048;24.638;2023-04-09T08:38:48;30.43;;;16.00;;
10463;SDS011;5279;42.048;24.638;2023-04-09T08:41:16;34.33;;;17.07;;
10463;SDS011;5279;42.048;24.638;2023-04-09T08:43:45;31.60;;;17.90;;
10463;SDS011;5279;42.048;24.638;2023-04-09T08:46:13;29.37;;;16.77;;
10463;SDS011;5279;42.048;24.638;2023-04-09T08:48:41;35.30;;;16.73;;
10463;SDS011;5279;42.048;24.638;2023-04-09T08:51:11;32.73;;;16.40;;
10463;SDS011;5279;42.048;24.638;2023-04-09T08:53:40;31.20;;;17.10;;
10463;SDS011;5279;42.048;24.638;2023-04-09T08:56:10;30.07;;;15.67;;
10463;SDS011;5279;42.048;24.638;2023-04-09T08:58:39;29.67;;;16.63;;
10463;SDS011;5279;42.048;24.638;2023-04-09T09:01:18;31.70;;;15.10;;
10463;SDS011;5279;42.048;24.638;2023-04-09T09:03:52;28.93;;;16.20;;
10463;SDS011;5279;42.048;24.638;2023-04-09T09:06:21;26.23;;;14.13;;
10463;SDS011;5279;42.048;24.638;2023-04-09T09:09:03;26.27;;;15.20;;
10463;SDS011;5279;42.048;24.638;2023-04-09T09:11:31;22.77;;;14.07;;
10463;SDS011;5279;42.048;24.638;2023-04-09T09:13:59;21.97;;;13.67;;
10463;SDS011;5279;42.048;24.638;2023-04-09T09:16:27;23.03;;;12.20;;
10463;SDS011;5279;42.048;24.638;2023-04-09T09:18:54;20.37;;;12.43;;
10463;SDS011;5279;42.048;24.638;2023-04-09T09:21:21;17.73;;;11.83;;
10463;SDS011;5279;42.048;24.638;2023-04-09T09:23:48;17.93;;;12.10;;
10463;SDS011;5279;42.048;24.638;2023-04-09T09:26:17;19.40;;;12.40;;
10463;SDS011;5279;42.048;24.638;2023-04-09T09:28:46;21.03;;;12.43;;
10463;SDS011;5279;42.048;24.638;2023-04-09T09:31:14;18.90;;;12.67;;
10463;SDS011;5279;42.048;24.638;2023-04-09T09:33:42;17.93;;;11.73;;
10463;SDS011;5279;42.048;24.638;2023-04-09T09:36:09;19.30;;;12.10;;
10463;SDS011;5279;42.048;24.638;2023-04-09T09:41:23;18.53;;;11.60;;
10463;SDS011;5279;42.048;24.638;2023-04-09T09:43:50;17.20;;;12.10;;
10463;SDS011;5279;42.048;24.638;2023-04-09T09:46:17;19.20;;;11.67;;
10463;SDS011;5279;42.048;24.638;2023-04-09T09:48:46;17.27;;;11.83;;
10463;SDS011;5279;42.048;24.638;2023-04-09T09:51:13;16.20;;;11.20;;
10463;SDS011;5279;42.048;24.638;2023-04-09T09:53:42;15.23;;;10.67;;
10463;SDS011;5279;42.048;24.638;2023-04-09T09:56:11;13.50;;;10.43;;
10463;SDS011;5279;42.048;24.638;2023-04-09T09:58:43;13.53;;;9.53;;
10463;SDS011;5279;42.048;24.638;2023-04-09T10:01:13;13.17;;;9.63;;
10463;SDS011;5279;42.048;24.638;2023-04-09T10:03:44;13.97;;;7.80;;
10463;SDS011;5279;42.048;24.638;2023-04-09T10:06:12;12.60;;;8.87;;
10463;SDS011;5279;42.048;24.638;2023-04-09T10:08:39;11.37;;;8.20;;
10463;SDS011;5279;42.048;24.638;2023-04-09T10:11:08;9.80;;;7.80;;
10463;SDS011;5279;42.048;24.638;2023-04-09T10:13:36;9.07;;;6.80;;
10463;SDS011;5279;42.048;24.638;2023-04-09T10:16:07;6.90;;;5.93;;
10463;SDS011;5279;42.048;24.638;2023-04-09T10:18:35;8.47;;;6.63;;
10463;SDS011;5279;42.048;24.638;2023-04-09T10:21:04;7.23;;;5.60;;
10463;SDS011;5279;42.048;24.638;2023-04-09T10:23:38;8.03;;;5.97;;
10463;SDS011;5279;42.048;24.638;2023-04-09T10:26:06;6.70;;;6.07;;
10463;SDS011;5279;42.048;24.638;2023-04-09T10:28:35;7.63;;;6.23;;
10463;SDS011;5279;42.048;24.638;2023-04-09T10:31:03;6.80;;;6.10;;
10463;SDS011;5279;42.048;24.638;2023-04-09T10:33:32;7.60;;;6.37;;
10463;SDS011;5279;42.048;24.638;2023-04-09T10:36:02;7.63;;;6.43;;
10463;SDS011;5279;42.048;24.638;2023-04-09T10:38:33;6.83;;;5.50;;
10463;SDS011;5279;42.048;24.638;2023-04-09T10:41:05;5.33;;;4.83;;
10463;SDS011;5279;42.048;24.638;2023-04-09T10:43:33;6.07;;;5.17;;
10463;SDS011;5279;42.048;24.638;2023-04-09T10:46:03;5.33;;;4.83;;
10463;SDS011;5279;42.048;24.638;2023-04-09T10:48:33;6.17;;;5.47;;
10463;SDS011;5279;42.048;24.638;2023-04-09T10:51:01;5.73;;;5.13;;
10463;SDS011;5279;42.048;24.638;2023-04-09T10:53:30;7.60;;;5.70;;
10463;SDS011;5279;42.048;24.638;2023-04-09T10:55:58;5.83;;;5.17;;
10463;SDS011;5279;42.048;24.638;2023-04-09T10:58:25;6.10;;;5.47;;
10463;SDS011;5279;42.048;24.638;2023-04-09T11:00:52;7.40;;;5.70;;
10463;SDS011;5279;42.048;24.638;2023-04-09T11:03:20;4.97;;;4.47;;
10463;SDS011;5279;42.048;24.638;2023-04-09T11:06:01;5.60;;;5.00;;
10463;SDS011;5279;42.048;24.638;2023-04-09T11:08:30;6.97;;;5.40;;
10463;SDS011;5279;42.048;24.638;2023-04-09T11:10:58;5.50;;;4.50;;
10463;SDS011;5279;42.048;24.638;2023-04-09T11:13:25;4.17;;;3.77;;
10463;SDS011;5279;42.048;24.638;2023-04-09T11:15:53;5.95;;;5.03;;
10463;SDS011;5279;42.048;24.638;2023-04-09T11:18:21;4.47;;;4.03;;
10463;SDS011;5279;42.048;24.638;2023-04-09T11:20:49;4.30;;;3.90;;
10463;SDS011;5279;42.048;24.638;2023-04-09T11:23:20;3.50;;;3.20;;
10463;SDS011;5279;42.048;24.638;2023-04-09T11:25:48;4.03;;;3.40;;
10463;SDS011;5279;42.048;24.638;2023-04-09T11:28:16;3.90;;;3.50;;
10463;SDS011;5279;42.048;24.638;2023-04-09T11:30:44;3.53;;;3.22;;
10463;SDS011;5279;42.048;24.638;2023-04-09T11:33:12;6.18;;;3.97;;
10463;SDS011;5279;42.048;24.638;2023-04-09T11:35:39;4.47;;;3.67;;
10463;SDS011;5279;42.048;24.638;2023-04-09T11:38:06;3.72;;;3.35;;
10463;SDS011;5279;42.048;24.638;2023-04-09T11:40:35;4.18;;;3.78;;
10463;SDS011;5279;42.048;24.638;2023-04-09T11:43:09;3.85;;;3.13;;
10463;SDS011;5279;42.048;24.638;2023-04-09T11:45:36;3.30;;;3.00;;
10463;SDS011;5279;42.048;24.638;2023-04-09T11:48:03;2.80;;;2.60;;
10463;SDS011;5279;42.048;24.638;2023-04-09T11:50:31;3.33;;;3.03;;
10463;SDS011;5279;42.048;24.638;2023-04-09T11:52:58;3.42;;;3.13;;
10463;SDS011;5279;42.048;24.638;2023-04-09T11:55:25;3.30;;;2.97;;
10463;SDS011;5279;42.048;24.638;2023-04-09T11:57:57;2.80;;;2.60;;
10463;SDS011;5279;42.048;24.638;2023-04-09T12:00:26;3.58;;;3.28;;
10463;SDS011;5279;42.048;24.638;2023-04-09T12:02:57;3.15;;;2.85;;
10463;SDS011;5279;42.048;24.638;2023-04-09T12:05:27;3.28;;;2.97;;
10463;SDS011;5279;42.048;24.638;2023-04-09T12:07:58;3.80;;;3.50;;
10463;SDS011;5279;42.048;24.638;2023-04-09T12:10:26;3.45;;;3.15;;
10463;SDS011;5279;42.048;24.638;2023-04-09T12:12:54;4.50;;;4.10;;
10463;SDS011;5279;42.048;24.638;2023-04-09T12:15:29;3.60;;;3.30;;
10463;SDS011;5279;42.048;24.638;2023-04-09T12:17:58;4.25;;;3.85;;
10463;SDS011;5279;42.048;24.638;2023-04-09T12:20:35;3.00;;;2.80;;
10463;SDS011;5279;42.048;24.638;2023-04-09T12:23:03;3.70;;;3.40;;
10463;SDS011;5279;42.048;24.638;2023-04-09T12:25:32;3.30;;;3.00;;
10463;SDS011;5279;42.048;24.638;2023-04-09T12:28:00;2.73;;;2.43;;
10463;SDS011;5279;42.048;24.638;2023-04-09T12:30:30;3.97;;;3.60;;
10463;SDS011;5279;42.048;24.638;2023-04-09T12:32:57;3.50;;;3.20;;
10463;SDS011;5279;42.048;24.638;2023-04-09T12:35:24;3.50;;;2.50;;
10463;SDS011;5279;42.048;24.638;2023-04-09T12:37:52;2.77;;;2.53;;
10463;SDS011;5279;42.048;24.638;2023-04-09T12:40:19;3.07;;;2.83;;
10463;SDS011;5279;42.048;24.638;2023-04-09T12:42:47;2.90;;;2.60;;
10463;SDS011;5279;42.048;24.638;2023-04-09T12:45:14;3.10;;;2.60;;
10463;SDS011;5279;42.048;24.638;2023-04-09T12:47:43;2.20;;;2.10;;
10463;SDS011;5279;42.048;24.638;2023-04-09T12:50:11;3.43;;;3.13;;
10463;SDS011;5279;42.048;24.638;2023-04-09T12:52:40;3.03;;;2.77;;
10463;SDS011;5279;42.048;24.638;2023-04-09T12:55:07;3.17;;;2.87;;
10463;SDS011;5279;42.048;24.638;2023-04-09T12:57:35;3.37;;;3.07;;
10463;SDS011;5279;42.048;24.638;2023-04-09T13:00:02;4.13;;;3.43;;
10463;SDS011;5279;42.048;24.638;2023-04-09T13:02:30;2.60;;;2.40;;
10463;SDS011;5279;42.048;24.638;2023-04-09T13:04:58;2.70;;;2.50;;
10463;SDS011;5279;42.048;24.638;2023-04-09T13:07:25;3.30;;;3.00;;
10463;SDS011;5279;42.048;24.638;2023-04-09T13:09:53;2.30;;;2.13;;
10463;SDS011;5279;42.048;24.638;2023-04-09T13:12:20;2.37;;;2.17;;
10463;SDS011;5279;42.048;24.638;2023-04-09T13:14:47;2.33;;;2.13;;
10463;SDS011;5279;42.048;24.638;2023-04-09T13:17:15;2.50;;;2.30;;
10463;SDS011;5279;42.048;24.638;2023-04-09T13:19:41;3.67;;;3.20;;
10463;SDS011;5279;42.048;24.638;2023-04-09T13:22:10;4.80;;;4.40;;
10463;SDS011;5279;42.048;24.638;2023-04-09T13:24:36;2.60;;;2.40;;
10463;SDS011;5279;42.048;24.638;2023-04-09T13:27:04;2.40;;;2.20;;
10463;SDS011;5279;42.048;24.638;2023-04-09T13:29:33;2.43;;;2.23;;
10463;SDS011;5279;42.048;24.638;2023-04-09T13:32:00;2.63;;;2.43;;
10463;SDS011;5279;42.048;24.638;2023-04-09T13:34:31;2.50;;;2.30;;
10463;SDS011;5279;42.048;24.638;2023-04-09T13:36:58;2.77;;;2.57;;
10463;SDS011;5279;42.048;24.638;2023-04-09T13:39:27;2.33;;;2.13;;
10463;SDS011;5279;42.048;24.638;2023-04-09T13:41:53;2.70;;;2.50;;
10463;SDS011;5279;42.048;24.638;2023-04-09T13:44:21;2.80;;;2.40;;
10463;SDS011;5279;42.048;24.638;2023-04-09T13:46:48;2.90;;;2.60;;
10463;SDS011;5279;42.048;24.638;2023-04-09T13:49:14;2.57;;;2.37;;
10463;SDS011;5279;42.048;24.638;2023-04-09T13:51:41;2.40;;;2.20;;
10463;SDS011;5279;42.048;24.638;2023-04-09T13:54:08;2.33;;;2.13;;
10463;SDS011;5279;42.048;24.638;2023-04-09T13:56:37;2.63;;;2.43;;
10463;SDS011;5279;42.048;24.638;2023-04-09T13:59:04;2.70;;;2.50;;
10463;SDS011;5279;42.048;24.638;2023-04-09T14:01:31;2.60;;;2.40;;
10463;SDS011;5279;42.048;24.638;2023-04-09T14:03:58;2.77;;;2.57;;
10463;SDS011;5279;42.048;24.638;2023-04-09T14:06:25;2.70;;;2.50;;
10463;SDS011;5279;42.048;24.638;2023-04-09T14:08:52;2.63;;;2.43;;
10463;SDS011;5279;42.048;24.638;2023-04-09T14:11:19;2.93;;;2.73;;
10463;SDS011;5279;42.048;24.638;2023-04-09T14:13:47;2.93;;;2.63;;
10463;SDS011;5279;42.048;24.638;2023-04-09T14:16:14;3.00;;;2.30;;
10463;SDS011;5279;42.048;24.638;2023-04-09T14:18:41;2.40;;;2.20;;
10463;SDS011;5279;42.048;24.638;2023-04-09T14:21:07;3.27;;;2.97;;
10463;SDS011;5279;42.048;24.638;2023-04-09T14:23:34;2.87;;;2.67;;
10463;SDS011;5279;42.048;24.638;2023-04-09T14:26:01;2.97;;;2.67;;
10463;SDS011;5279;42.048;24.638;2023-04-09T14:28:28;2.20;;;2.10;;
10463;SDS011;5279;42.048;24.638;2023-04-09T14:30:57;2.70;;;2.50;;
10463;SDS011;5279;42.048;24.638;2023-04-09T14:33:24;2.67;;;2.47;;
10463;SDS011;5279;42.048;24.638;2023-04-09T14:35:51;2.60;;;2.40;;
10463;SDS011;5279;42.048;24.638;2023-04-09T14:38:18;2.90;;;2.60;;